sensor_id;sensor_type;location;lat;lon;timestamp;P1;durP1;ratioP1;P2;durP2;ratioP2
40322;SDS011;26030;51.164;17.100;2023-07-09T00:04:11;16.60;;;14.90;;
40322;SDS011;26030;51.164;17.100;2023-07-09T00:09:18;16.50;;;14.50;;
40322;SDS011;26030;51.164;17.100;2023-07-09T00:14:22;16.40;;;14.70;;
40322;SDS011;26030;51.164;17.100;2023-07-09T00:19:26;16.60;;;13.80;;
40322;SDS011;26030;51.164;17.100;2023-07-09T00:24:33;15.20;;;13.50;;
40322;SDS011;26030;51.164;17.100;2023-07-09T00:29:39;16.50;;;14.80;;
40322;SDS011;26030;51.164;17.100;2023-07-09T00:34:43;15.80;;;14.10;;
40322;SDS011;26030;51.164;17.100;2023-07-09T00:39:53;16.70;;;13.60;;
40322;SDS011;26030;51.164;17.100;2023-07-09T00:44:57;14.80;;;13.20;;
40322;SDS011;26030;51.164;17.100;2023-07-09T00:50:08;14.30;;;12.50;;
40322;SDS011;26030;51.164;17.100;2023-07-09T00:55:15;15.60;;;13.10;;
40322;SDS011;26030;51.164;17.100;2023-07-09T01:00:23;14.00;;;12.50;;
40322;SDS011;26030;51.164;17.100;2023-07-09T01:05:28;16.30;;;13.40;;
40322;SDS011;26030;51.164;17.100;2023-07-09T01:10:33;13.00;;;11.80;;
40322;SDS011;26030;51.164;17.100;2023-07-09T01:15:39;13.40;;;12.00;;
40322;SDS011;26030;51.164;17.100;2023-07-09T01:20:44;12.60;;;11.40;;
40322;SDS011;26030;51.164;17.100;2023-07-09T01:25:50;13.90;;;12.40;;
40322;SDS011;26030;51.164;17.100;2023-07-09T01:30:56;14.10;;;11.50;;
40322;SDS011;26030;51.164;17.100;2023-07-09T01:36:00;12.80;;;11.50;;
40322;SDS011;26030;51.164;17.100;2023-07-09T01:41:05;12.60;;;11.40;;
40322;SDS011;26030;51.164;17.100;2023-07-09T01:46:11;13.30;;;11.00;;
40322;SDS011;26030;51.164;17.100;2023-07-09T01:51:19;12.50;;;11.20;;
40322;SDS011;26030;51.164;17.100;2023-07-09T01:56:23;12.60;;;11.20;;
40322;SDS011;26030;51.164;17.100;2023-07-09T02:01:30;13.10;;;11.70;;
40322;SDS011;26030;51.164;17.100;2023-07-09T02:06:37;13.30;;;12.00;;
40322;SDS011;26030;51.164;17.100;2023-07-09T02:11:42;13.20;;;11.90;;
40322;SDS011;26030;51.164;17.100;2023-07-09T02:16:46;13.00;;;11.80;;
40322;SDS011;26030;51.164;17.100;2023-07-09T02:21:50;12.00;;;10.90;;
40322;SDS011;26030;51.164;17.100;2023-07-09T02:26:55;11.40;;;10.40;;
40322;SDS011;26030;51.164;17.100;2023-07-09T02:32:00;12.00;;;10.10;;
40322;SDS011;26030;51.164;17.100;2023-07-09T02:37:06;11.40;;;10.40;;
40322;SDS011;26030;51.164;17.100;2023-07-09T02:42:11;12.20;;;9.50;;
40322;SDS011;26030;51.164;17.100;2023-07-09T02:47:16;11.10;;;10.00;;
40322;SDS011;26030;51.164;17.100;2023-07-09T02:52:21;10.10;;;8.90;;
40322;SDS011;26030;51.164;17.100;2023-07-09T02:57:25;10.20;;;9.30;;
40322;SDS011;26030;51.164;17.100;2023-07-09T03:02:29;9.50;;;8.50;;
40322;SDS011;26030;51.164;17.100;2023-07-09T03:07:33;10.10;;;9.20;;
40322;SDS011;26030;51.164;17.100;2023-07-09T03:12:37;9.60;;;8.70;;
40322;SDS011;26030;51.164;17.100;2023-07-09T03:17:42;9.10;;;8.30;;
40322;SDS011;26030;51.164;17.100;2023-07-09T03:22:46;11.20;;;8.30;;
40322;SDS011;26030;51.164;17.100;2023-07-09T03:27:50;8.90;;;8.10;;
40322;SDS011;26030;51.164;17.100;2023-07-09T03:32:54;8.50;;;7.70;;
40322;SDS011;26030;51.164;17.100;2023-07-09T03:37:58;9.10;;;8.30;;
40322;SDS011;26030;51.164;17.100;2023-07-09T03:43:07;8.20;;;7.40;;
40322;SDS011;26030;51.164;17.100;2023-07-09T03:48:13;9.40;;;7.50;;
40322;SDS011;26030;51.164;17.100;2023-07-09T03:53:17;8.70;;;7.50;;
40322;SDS011;26030;51.164;17.100;2023-07-09T03:58:22;8.70;;;7.50;;
40322;SDS011;26030;51.164;17.100;2023-07-09T04:03:27;7.70;;;7.00;;
40322;SDS011;26030;51.164;17.100;2023-07-09T04:08:32;8.30;;;7.50;;
40322;SDS011;26030;51.164;17.100;2023-07-09T04:13:36;8.40;;;7.60;;
40322;SDS011;26030;51.164;17.100;2023-07-09T04:18:40;7.20;;;6.60;;
40322;SDS011;26030;51.164;17.100;2023-07-09T04:23:44;7.60;;;6.90;;
40322;SDS011;26030;51.164;17.100;2023-07-09T04:28:49;7.80;;;7.10;;
40322;SDS011;26030;51.164;17.100;2023-07-09T04:33:53;7.60;;;6.80;;
40322;SDS011;26030;51.164;17.100;2023-07-09T04:38:57;7.10;;;6.50;;
40322;SDS011;26030;51.164;17.100;2023-07-09T04:44:02;8.00;;;7.30;;
40322;SDS011;26030;51.164;17.100;2023-07-09T04:49:06;7.70;;;7.00;;
40322;SDS011;26030;51.164;17.100;2023-07-09T04:54:10;10.40;;;6.50;;
40322;SDS011;26030;51.164;17.100;2023-07-09T04:59:14;7.20;;;6.50;;
40322;SDS011;26030;51.164;17.100;2023-07-09T05:04:19;6.90;;;6.40;;
40322;SDS011;26030;51.164;17.100;2023-07-09T05:09:24;7.10;;;6.50;;
40322;SDS011;26030;51.164;17.100;2023-07-09T05:14:30;6.90;;;6.30;;
40322;SDS011;26030;51.164;17.100;2023-07-09T05:19:35;7.50;;;6.80;;
40322;SDS011;26030;51.164;17.100;2023-07-09T05:24:39;7.30;;;6.70;;
40322;SDS011;26030;51.164;17.100;2023-07-09T05:29:44;6.90;;;6.20;;
40322;SDS011;26030;51.164;17.100;2023-07-09T05:34:48;7.40;;;6.80;;
40322;SDS011;26030;51.164;17.100;2023-07-09T05:39:53;7.40;;;6.70;;
40322;SDS011;26030;51.164;17.100;2023-07-09T05:44:57;6.70;;;6.00;;
40322;SDS011;26030;51.164;17.100;2023-07-09T05:50:01;7.70;;;6.60;;
40322;SDS011;26030;51.164;17.100;2023-07-09T05:55:06;8.40;;;6.80;;
40322;SDS011;26030;51.164;17.100;2023-07-09T06:00:10;7.10;;;6.30;;
40322;SDS011;26030;51.164;17.100;2023-07-09T06:05:16;6.80;;;6.30;;
40322;SDS011;26030;51.164;17.100;2023-07-09T06:10:20;7.00;;;6.30;;
40322;SDS011;26030;51.164;17.100;2023-07-09T06:15:26;7.20;;;6.50;;
40322;SDS011;26030;51.164;17.100;2023-07-09T06:20:29;7.40;;;6.60;;
40322;SDS011;26030;51.164;17.100;2023-07-09T06:25:34;6.30;;;5.80;;
40322;SDS011;26030;51.164;17.100;2023-07-09T06:30:41;6.50;;;6.00;;
40322;SDS011;26030;51.164;17.100;2023-07-09T06:35:48;6.90;;;6.20;;
40322;SDS011;26030;51.164;17.100;2023-07-09T06:40:53;7.00;;;6.20;;
40322;SDS011;26030;51.164;17.100;2023-07-09T06:45:59;6.90;;;6.40;;
40322;SDS011;26030;51.164;17.100;2023-07-09T06:51:04;8.60;;;6.80;;
40322;SDS011;26030;51.164;17.100;2023-07-09T06:56:08;7.20;;;6.60;;
40322;SDS011;26030;51.164;17.100;2023-07-09T07:01:13;8.40;;;7.00;;
40322;SDS011;26030;51.164;17.100;2023-07-09T07:06:17;6.80;;;6.20;;
40322;SDS011;26030;51.164;17.100;2023-07-09T07:11:21;7.00;;;6.10;;
40322;SDS011;26030;51.164;17.100;2023-07-09T07:16:26;6.30;;;5.70;;
40322;SDS011;26030;51.164;17.100;2023-07-09T07:21:30;6.50;;;6.00;;
40322;SDS011;26030;51.164;17.100;2023-07-09T07:26:34;6.20;;;5.70;;
40322;SDS011;26030;51.164;17.100;2023-07-09T07:31:38;6.80;;;6.20;;
40322;SDS011;26030;51.164;17.100;2023-07-09T07:36:43;6.90;;;6.30;;
40322;SDS011;26030;51.164;17.100;2023-07-09T07:41:47;6.70;;;6.00;;
40322;SDS011;26030;51.164;17.100;2023-07-09T07:46:52;6.70;;;6.10;;
40322;SDS011;26030;51.164;17.100;2023-07-09T07:51:56;6.50;;;5.90;;
40322;SDS011;26030;51.164;17.100;2023-07-09T07:57:00;6.60;;;5.80;;
40322;SDS011;26030;51.164;17.100;2023-07-09T08:02:08;6.10;;;5.60;;
40322;SDS011;26030;51.164;17.100;2023-07-09T08:07:14;6.00;;;5.50;;
40322;SDS011;26030;51.164;17.100;2023-07-09T08:12:18;6.70;;;6.10;;
40322;SDS011;26030;51.164;17.100;2023-07-09T08:17:23;6.90;;;5.70;;
40322;SDS011;26030;51.164;17.100;2023-07-09T08:22:27;6.40;;;5.90;;
40322;SDS011;26030;51.164;17.100;2023-07-09T08:27:32;6.40;;;5.80;;
40322;SDS011;26030;51.164;17.100;2023-07-09T08:32:36;5.80;;;5.40;;
40322;SDS011;26030;51.164;17.100;2023-07-09T08:37:41;5.90;;;5.50;;
40322;SDS011;26030;51.164;17.100;2023-07-09T08:42:46;5.90;;;5.40;;
40322;SDS011;26030;51.164;17.100;2023-07-09T08:48:08;6.10;;;5.60;;
40322;SDS011;26030;51.164;17.100;2023-07-09T08:54:09;5.90;;;5.40;;
40322;SDS011;26030;51.164;17.100;2023-07-09T08:58:55;5.50;;;5.10;;
40322;SDS011;26030;51.164;17.100;2023-07-09T09:04:30;5.90;;;5.50;;
40322;SDS011;26030;51.164;17.100;2023-07-09T09:09:40;5.80;;;5.40;;
40322;SDS011;26030;51.164;17.100;2023-07-09T09:14:57;5.70;;;5.20;;
40322;SDS011;26030;51.164;17.100;2023-07-09T09:20:10;7.50;;;5.70;;
40322;SDS011;26030;51.164;17.100;2023-07-09T09:30:27;5.20;;;4.80;;
40322;SDS011;26030;51.164;17.100;2023-07-09T09:35:34;5.40;;;4.90;;
40322;SDS011;26030;51.164;17.100;2023-07-09T09:40:39;5.40;;;4.90;;
40322;SDS011;26030;51.164;17.100;2023-07-09T09:45:45;5.60;;;5.10;;
40322;SDS011;26030;51.164;17.100;2023-07-09T09:50:51;5.50;;;5.00;;
40322;SDS011;26030;51.164;17.100;2023-07-09T09:55:56;5.20;;;4.80;;
40322;SDS011;26030;51.164;17.100;2023-07-09T10:01:01;5.40;;;5.00;;
40322;SDS011;26030;51.164;17.100;2023-07-09T10:06:19;5.30;;;4.80;;
40322;SDS011;26030;51.164;17.100;2023-07-09T10:11:55;4.70;;;4.40;;
40322;SDS011;26030;51.164;17.100;2023-07-09T10:17:00;6.90;;;4.10;;
40322;SDS011;26030;51.164;17.100;2023-07-09T10:22:38;4.70;;;4.30;;
40322;SDS011;26030;51.164;17.100;2023-07-09T10:33:17;4.70;;;4.40;;
40322;SDS011;26030;51.164;17.100;2023-07-09T10:43:44;5.00;;;4.60;;
40322;SDS011;26030;51.164;17.100;2023-07-09T10:48:54;5.10;;;4.60;;
40322;SDS011;26030;51.164;17.100;2023-07-09T10:54:55;4.60;;;4.30;;
40322;SDS011;26030;51.164;17.100;2023-07-09T10:59:32;4.40;;;4.10;;
40322;SDS011;26030;51.164;17.100;2023-07-09T11:04:44;4.30;;;3.90;;
40322;SDS011;26030;51.164;17.100;2023-07-09T11:09:51;4.30;;;4.00;;
40322;SDS011;26030;51.164;17.100;2023-07-09T11:15:17;4.20;;;3.70;;
40322;SDS011;26030;51.164;17.100;2023-07-09T11:20:31;4.10;;;3.80;;
40322;SDS011;26030;51.164;17.100;2023-07-09T11:25:44;4.20;;;3.90;;
40322;SDS011;26030;51.164;17.100;2023-07-09T11:30:52;4.80;;;3.80;;
40322;SDS011;26030;51.164;17.100;2023-07-09T11:36:23;4.30;;;4.00;;
40322;SDS011;26030;51.164;17.100;2023-07-09T11:41:43;4.70;;;4.30;;
40322;SDS011;26030;51.164;17.100;2023-07-09T11:52:00;4.30;;;3.90;;
40322;SDS011;26030;51.164;17.100;2023-07-09T11:57:12;3.90;;;3.70;;
40322;SDS011;26030;51.164;17.100;2023-07-09T12:07:25;4.10;;;3.60;;
40322;SDS011;26030;51.164;17.100;2023-07-09T12:12:30;4.90;;;3.50;;
40322;SDS011;26030;51.164;17.100;2023-07-09T12:17:34;4.20;;;3.90;;
40322;SDS011;26030;51.164;17.100;2023-07-09T12:22:40;6.00;;;4.00;;
40322;SDS011;26030;51.164;17.100;2023-07-09T12:27:44;3.40;;;3.20;;
40322;SDS011;26030;51.164;17.100;2023-07-09T12:32:49;3.90;;;3.60;;
40322;SDS011;26030;51.164;17.100;2023-07-09T12:37:56;3.40;;;3.20;;
40322;SDS011;26030;51.164;17.100;2023-07-09T12:43:03;3.70;;;3.50;;
40322;SDS011;26030;51.164;17.100;2023-07-09T12:48:08;4.40;;;3.80;;
40322;SDS011;26030;51.164;17.100;2023-07-09T12:53:18;3.50;;;3.20;;
40322;SDS011;26030;51.164;17.100;2023-07-09T12:58:27;3.90;;;3.70;;
40322;SDS011;26030;51.164;17.100;2023-07-09T13:03:33;3.70;;;3.30;;
40322;SDS011;26030;51.164;17.100;2023-07-09T13:08:43;3.70;;;3.40;;
40322;SDS011;26030;51.164;17.100;2023-07-09T13:13:59;4.10;;;3.80;;
40322;SDS011;26030;51.164;17.100;2023-07-09T13:19:03;3.70;;;3.40;;
40322;SDS011;26030;51.164;17.100;2023-07-09T13:29:23;3.40;;;3.20;;
40322;SDS011;26030;51.164;17.100;2023-07-09T13:34:29;3.70;;;3.40;;
40322;SDS011;26030;51.164;17.100;2023-07-09T13:39:37;4.00;;;3.70;;
40322;SDS011;26030;51.164;17.100;2023-07-09T13:44:44;3.70;;;3.40;;
40322;SDS011;26030;51.164;17.100;2023-07-09T13:49:48;3.70;;;3.50;;
40322;SDS011;26030;51.164;17.100;2023-07-09T13:54:53;3.50;;;3.20;;
40322;SDS011;26030;51.164;17.100;2023-07-09T13:59:57;3.50;;;3.20;;
40322;SDS011;26030;51.164;17.100;2023-07-09T14:05:03;3.50;;;3.30;;
40322;SDS011;26030;51.164;17.100;2023-07-09T14:10:13;3.40;;;3.20;;
40322;SDS011;26030;51.164;17.100;2023-07-09T14:15:19;3.50;;;3.30;;
40322;SDS011;26030;51.164;17.100;2023-07-09T14:20:24;3.60;;;2.90;;
40322;SDS011;26030;51.164;17.100;2023-07-09T14:25:28;3.60;;;3.30;;
40322;SDS011;26030;51.164;17.100;2023-07-09T14:30:33;3.30;;;3.10;;
40322;SDS011;26030;51.164;17.100;2023-07-09T14:35:37;3.70;;;3.50;;
40322;SDS011;26030;51.164;17.100;2023-07-09T14:40:42;3.40;;;3.10;;
40322;SDS011;26030;51.164;17.100;2023-07-09T14:45:47;3.10;;;2.90;;
40322;SDS011;26030;51.164;17.100;2023-07-09T14:50:52;3.40;;;3.20;;
40322;SDS011;26030;51.164;17.100;2023-07-09T14:55:57;3.60;;;3.40;;
40322;SDS011;26030;51.164;17.100;2023-07-09T15:01:01;3.30;;;3.10;;
40322;SDS011;26030;51.164;17.100;2023-07-09T15:06:06;3.60;;;3.40;;
40322;SDS011;26030;51.164;17.100;2023-07-09T15:11:10;3.40;;;3.20;;
40322;SDS011;26030;51.164;17.100;2023-07-09T15:16:14;3.80;;;2.70;;
40322;SDS011;26030;51.164;17.100;2023-07-09T15:21:18;3.50;;;3.20;;
40322;SDS011;26030;51.164;17.100;2023-07-09T15:26:23;3.40;;;2.80;;
40322;SDS011;26030;51.164;17.100;2023-07-09T15:31:27;3.10;;;2.90;;
40322;SDS011;26030;51.164;17.100;2023-07-09T15:36:31;2.80;;;2.60;;
40322;SDS011;26030;51.164;17.100;2023-07-09T15:41:35;3.40;;;3.10;;
40322;SDS011;26030;51.164;17.100;2023-07-09T15:46:40;2.80;;;2.60;;
40322;SDS011;26030;51.164;17.100;2023-07-09T15:51:45;3.20;;;2.90;;
40322;SDS011;26030;51.164;17.100;2023-07-09T15:56:51;3.40;;;3.10;;
40322;SDS011;26030;51.164;17.100;2023-07-09T16:01:58;3.30;;;3.10;;
40322;SDS011;26030;51.164;17.100;2023-07-09T16:07:03;2.90;;;2.80;;
40322;SDS011;26030;51.164;17.100;2023-07-09T16:12:10;3.40;;;3.10;;
40322;SDS011;26030;51.164;17.100;2023-07-09T16:17:16;2.60;;;2.50;;
40322;SDS011;26030;51.164;17.100;2023-07-09T16:22:20;3.20;;;3.00;;
40322;SDS011;26030;51.164;17.100;2023-07-09T16:27:25;3.00;;;2.80;;
40322;SDS011;26030;51.164;17.100;2023-07-09T16:32:29;3.10;;;2.90;;
40322;SDS011;26030;51.164;17.100;2023-07-09T16:37:33;2.90;;;2.70;;
40322;SDS011;26030;51.164;17.100;2023-07-09T16:42:37;2.50;;;2.40;;
40322;SDS011;26030;51.164;17.100;2023-07-09T16:47:43;3.10;;;2.90;;
40322;SDS011;26030;51.164;17.100;2023-07-09T16:52:48;3.30;;;3.10;;
40322;SDS011;26030;51.164;17.100;2023-07-09T16:57:55;2.90;;;2.70;;
40322;SDS011;26030;51.164;17.100;2023-07-09T17:03:03;3.00;;;2.80;;
40322;SDS011;26030;51.164;17.100;2023-07-09T17:08:09;2.90;;;2.70;;
40322;SDS011;26030;51.164;17.100;2023-07-09T17:13:25;3.10;;;2.90;;
40322;SDS011;26030;51.164;17.100;2023-07-09T17:18:32;3.20;;;3.00;;
40322;SDS011;26030;51.164;17.100;2023-07-09T17:23:36;3.20;;;3.00;;
40322;SDS011;26030;51.164;17.100;2023-07-09T17:28:41;2.90;;;2.50;;
40322;SDS011;26030;51.164;17.100;2023-07-09T17:33:46;3.00;;;2.80;;
40322;SDS011;26030;51.164;17.100;2023-07-09T17:38:52;3.00;;;2.80;;
40322;SDS011;26030;51.164;17.100;2023-07-09T17:43:56;2.70;;;2.50;;
40322;SDS011;26030;51.164;17.100;2023-07-09T17:49:01;3.00;;;2.80;;
40322;SDS011;26030;51.164;17.100;2023-07-09T17:54:19;2.90;;;2.70;;
40322;SDS011;26030;51.164;17.100;2023-07-09T17:59:25;3.30;;;3.00;;
40322;SDS011;26030;51.164;17.100;2023-07-09T18:04:31;2.90;;;2.70;;
40322;SDS011;26030;51.164;17.100;2023-07-09T18:09:35;3.30;;;3.00;;
40322;SDS011;26030;51.164;17.100;2023-07-09T18:14:43;2.90;;;2.70;;
40322;SDS011;26030;51.164;17.100;2023-07-09T18:19:51;2.80;;;2.60;;
40322;SDS011;26030;51.164;17.100;2023-07-09T18:24:57;2.90;;;2.70;;
40322;SDS011;26030;51.164;17.100;2023-07-09T18:30:01;2.90;;;2.70;;
40322;SDS011;26030;51.164;17.100;2023-07-09T18:35:34;5.10;;;3.20;;
40322;SDS011;26030;51.164;17.100;2023-07-09T18:40:41;3.80;;;3.50;;
40322;SDS011;26030;51.164;17.100;2023-07-09T18:45:47;5.80;;;3.20;;
40322;SDS011;26030;51.164;17.100;2023-07-09T18:50:52;4.60;;;3.50;;
40322;SDS011;26030;51.164;17.100;2023-07-09T18:55:59;3.00;;;2.80;;
40322;SDS011;26030;51.164;17.100;2023-07-09T19:01:20;4.90;;;3.50;;
40322;SDS011;26030;51.164;17.100;2023-07-09T19:06:27;3.50;;;3.30;;
40322;SDS011;26030;51.164;17.100;2023-07-09T19:11:31;5.50;;;3.20;;
40322;SDS011;26030;51.164;17.100;2023-07-09T19:16:36;4.30;;;3.60;;
40322;SDS011;26030;51.164;17.100;2023-07-09T19:21:40;4.50;;;4.10;;
40322;SDS011;26030;51.164;17.100;2023-07-09T19:26:44;3.60;;;3.30;;
40322;SDS011;26030;51.164;17.100;2023-07-09T19:31:59;3.20;;;3.00;;
40322;SDS011;26030;51.164;17.100;2023-07-09T19:37:28;3.50;;;3.20;;
40322;SDS011;26030;51.164;17.100;2023-07-09T19:42:33;3.00;;;2.70;;
40322;SDS011;26030;51.164;17.100;2023-07-09T19:47:37;3.10;;;2.90;;
40322;SDS011;26030;51.164;17.100;2023-07-09T19:52:41;3.20;;;2.90;;
40322;SDS011;26030;51.164;17.100;2023-07-09T19:57:48;4.30;;;3.30;;
40322;SDS011;26030;51.164;17.100;2023-07-09T20:02:52;4.00;;;2.90;;
40322;SDS011;26030;51.164;17.100;2023-07-09T20:08:13;3.70;;;3.40;;
40322;SDS011;26030;51.164;17.100;2023-07-09T20:13:23;3.80;;;3.50;;
40322;SDS011;26030;51.164;17.100;2023-07-09T20:18:31;28.20;;;7.50;;
40322;SDS011;26030;51.164;17.100;2023-07-09T20:23:35;10.40;;;5.40;;
40322;SDS011;26030;51.164;17.100;2023-07-09T20:28:39;6.70;;;4.30;;
40322;SDS011;26030;51.164;17.100;2023-07-09T20:33:44;7.80;;;5.00;;
40322;SDS011;26030;51.164;17.100;2023-07-09T20:38:49;9.90;;;5.20;;
40322;SDS011;26030;51.164;17.100;2023-07-09T20:43:53;8.50;;;4.10;;
40322;SDS011;26030;51.164;17.100;2023-07-09T20:49:00;6.60;;;4.20;;
40322;SDS011;26030;51.164;17.100;2023-07-09T20:54:05;6.90;;;4.70;;
40322;SDS011;26030;51.164;17.100;2023-07-09T20:59:15;8.00;;;5.00;;
40322;SDS011;26030;51.164;17.100;2023-07-09T21:04:22;7.40;;;4.60;;
40322;SDS011;26030;51.164;17.100;2023-07-09T21:09:30;5.20;;;4.70;;
40322;SDS011;26030;51.164;17.100;2023-07-09T21:14:35;6.40;;;4.70;;
40322;SDS011;26030;51.164;17.100;2023-07-09T21:19:39;6.90;;;4.80;;
40322;SDS011;26030;51.164;17.100;2023-07-09T21:24:48;8.50;;;4.70;;
40322;SDS011;26030;51.164;17.100;2023-07-09T21:29:53;8.10;;;4.90;;
40322;SDS011;26030;51.164;17.100;2023-07-09T21:34:59;10.10;;;4.50;;
40322;SDS011;26030;51.164;17.100;2023-07-09T21:40:30;7.20;;;5.00;;
40322;SDS011;26030;51.164;17.100;2023-07-09T21:45:38;6.30;;;5.00;;
40322;SDS011;26030;51.164;17.100;2023-07-09T21:50:44;5.30;;;4.80;;
40322;SDS011;26030;51.164;17.100;2023-07-09T21:55:48;7.90;;;4.70;;
40322;SDS011;26030;51.164;17.100;2023-07-09T22:00:53;5.70;;;4.50;;
40322;SDS011;26030;51.164;17.100;2023-07-09T22:06:01;6.00;;;5.00;;
40322;SDS011;26030;51.164;17.100;2023-07-09T22:11:26;7.50;;;5.10;;
40322;SDS011;26030;51.164;17.100;2023-07-09T22:16:31;6.50;;;5.50;;
40322;SDS011;26030;51.164;17.100;2023-07-09T22:21:37;5.10;;;4.70;;
40322;SDS011;26030;51.164;17.100;2023-07-09T22:26:42;6.50;;;5.00;;
40322;SDS011;26030;51.164;17.100;2023-07-09T22:31:46;5.20;;;4.80;;
40322;SDS011;26030;51.164;17.100;2023-07-09T22:36:51;13.90;;;5.60;;
40322;SDS011;26030;51.164;17.100;2023-07-09T22:41:55;6.00;;;5.50;;
40322;SDS011;26030;51.164;17.100;2023-07-09T22:47:01;6.60;;;5.40;;
40322;SDS011;26030;51.164;17.100;2023-07-09T22:52:10;5.30;;;4.90;;
40322;SDS011;26030;51.164;17.100;2023-07-09T22:57:15;6.00;;;5.40;;
40322;SDS011;26030;51.164;17.100;2023-07-09T23:02:20;7.00;;;5.00;;
40322;SDS011;26030;51.164;17.100;2023-07-09T23:07:24;6.00;;;5.40;;
40322;SDS011;26030;51.164;17.100;2023-07-09T23:12:29;5.60;;;5.10;;
40322;SDS011;26030;51.164;17.100;2023-07-09T23:17:33;5.50;;;5.00;;
40322;SDS011;26030;51.164;17.100;2023-07-09T23:22:37;6.20;;;4.80;;
40322;SDS011;26030;51.164;17.100;2023-07-09T23:27:41;5.60;;;4.30;;
40322;SDS011;26030;51.164;17.100;2023-07-09T23:32:46;10.80;;;5.10;;
40322;SDS011;26030;51.164;17.100;2023-07-09T23:37:50;7.60;;;4.80;;
40322;SDS011;26030;51.164;17.100;2023-07-09T23:42:54;5.90;;;5.10;;
40322;SDS011;26030;51.164;17.100;2023-07-09T23:48:02;6.10;;;4.60;;
40322;SDS011;26030;51.164;17.100;2023-07-09T23:53:22;5.40;;;4.90;;
40322;SDS011;26030;51.164;17.100;2023-07-09T23:58:30;7.60;;;4.80;;
